sensor_id;sensor_type;location;lat;lon;timestamp;P1;durP1;ratioP1;P2;durP2;ratioP2
19585;SDS011;9939;49.246;9.106;2022-07-29T00:01:03;7.67;;;4.23;;
19585;SDS011;9939;49.246;9.106;2022-07-29T00:03:30;6.73;;;3.60;;
19585;SDS011;9939;49.246;9.106;2022-07-29T00:05:57;6.50;;;3.40;;
19585;SDS011;9939;49.246;9.106;2022-07-29T00:08:26;7.17;;;4.23;;
19585;SDS011;9939;49.246;9.106;2022-07-29T00:10:52;7.80;;;4.13;;
19585;SDS011;9939;49.246;9.106;2022-07-29T00:13:19;6.93;;;4.33;;
19585;SDS011;9939;49.246;9.106;2022-07-29T00:15:57;7.50;;;3.77;;
19585;SDS011;9939;49.246;9.106;2022-07-29T00:18:30;6.97;;;4.00;;
19585;SDS011;9939;49.246;9.106;2022-07-29T00:20:57;8.57;;;3.60;;
19585;SDS011;9939;49.246;9.106;2022-07-29T00:23:24;8.33;;;4.33;;
19585;SDS011;9939;49.246;9.106;2022-07-29T00:25:51;6.30;;;3.83;;
19585;SDS011;9939;49.246;9.106;2022-07-29T00:28:18;9.37;;;4.53;;
19585;SDS011;9939;49.246;9.106;2022-07-29T00:30:45;6.07;;;3.53;;
19585;SDS011;9939;49.246;9.106;2022-07-29T00:33:11;7.77;;;4.27;;
19585;SDS011;9939;49.246;9.106;2022-07-29T00:35:38;7.23;;;3.87;;
19585;SDS011;9939;49.246;9.106;2022-07-29T00:38:12;6.80;;;3.93;;
19585;SDS011;9939;49.246;9.106;2022-07-29T00:40:40;8.67;;;4.73;;
19585;SDS011;9939;49.246;9.106;2022-07-29T00:43:09;8.00;;;4.03;;
19585;SDS011;9939;49.246;9.106;2022-07-29T00:45:37;9.23;;;4.23;;
19585;SDS011;9939;49.246;9.106;2022-07-29T00:48:04;9.33;;;4.37;;
19585;SDS011;9939;49.246;9.106;2022-07-29T00:50:33;7.43;;;4.10;;
19585;SDS011;9939;49.246;9.106;2022-07-29T00:53:01;9.00;;;4.30;;
19585;SDS011;9939;49.246;9.106;2022-07-29T00:55:31;7.03;;;3.83;;
19585;SDS011;9939;49.246;9.106;2022-07-29T00:57:58;8.00;;;4.03;;
19585;SDS011;9939;49.246;9.106;2022-07-29T01:00:26;7.53;;;4.13;;
19585;SDS011;9939;49.246;9.106;2022-07-29T01:02:54;7.37;;;4.87;;
19585;SDS011;9939;49.246;9.106;2022-07-29T01:05:21;6.07;;;4.17;;
19585;SDS011;9939;49.246;9.106;2022-07-29T01:08:11;8.90;;;4.30;;
19585;SDS011;9939;49.246;9.106;2022-07-29T01:10:39;7.30;;;4.40;;
19585;SDS011;9939;49.246;9.106;2022-07-29T01:13:08;8.10;;;4.20;;
19585;SDS011;9939;49.246;9.106;2022-07-29T01:15:42;8.97;;;4.77;;
19585;SDS011;9939;49.246;9.106;2022-07-29T01:18:20;7.23;;;4.17;;
19585;SDS011;9939;49.246;9.106;2022-07-29T01:37:02;6.97;;;4.30;;
19585;SDS011;9939;49.246;9.106;2022-07-29T01:39:34;8.77;;;4.17;;
19585;SDS011;9939;49.246;9.106;2022-07-29T01:44:41;7.67;;;4.37;;
19585;SDS011;9939;49.246;9.106;2022-07-29T01:47:19;6.63;;;4.03;;
19585;SDS011;9939;49.246;9.106;2022-07-29T01:49:50;8.33;;;4.73;;
19585;SDS011;9939;49.246;9.106;2022-07-29T01:52:23;6.83;;;4.23;;
19585;SDS011;9939;49.246;9.106;2022-07-29T01:54:58;7.80;;;4.10;;
19585;SDS011;9939;49.246;9.106;2022-07-29T01:57:29;8.30;;;4.27;;
19585;SDS011;9939;49.246;9.106;2022-07-29T01:59:59;8.80;;;4.60;;
19585;SDS011;9939;49.246;9.106;2022-07-29T02:02:37;7.33;;;4.43;;
19585;SDS011;9939;49.246;9.106;2022-07-29T02:05:07;7.10;;;3.93;;
19585;SDS011;9939;49.246;9.106;2022-07-29T02:07:37;8.83;;;4.50;;
19585;SDS011;9939;49.246;9.106;2022-07-29T02:10:10;7.20;;;4.47;;
19585;SDS011;9939;49.246;9.106;2022-07-29T02:12:38;8.07;;;4.60;;
19585;SDS011;9939;49.246;9.106;2022-07-29T02:15:07;7.27;;;4.27;;
19585;SDS011;9939;49.246;9.106;2022-07-29T02:17:48;6.90;;;4.10;;
19585;SDS011;9939;49.246;9.106;2022-07-29T02:20:20;9.30;;;4.47;;
19585;SDS011;9939;49.246;9.106;2022-07-29T02:22:48;7.57;;;4.30;;
19585;SDS011;9939;49.246;9.106;2022-07-29T02:25:18;5.63;;;4.00;;
19585;SDS011;9939;49.246;9.106;2022-07-29T02:27:47;8.87;;;3.93;;
19585;SDS011;9939;49.246;9.106;2022-07-29T02:30:17;7.00;;;4.10;;
19585;SDS011;9939;49.246;9.106;2022-07-29T02:32:45;7.47;;;4.40;;
19585;SDS011;9939;49.246;9.106;2022-07-29T02:35:14;8.80;;;4.17;;
19585;SDS011;9939;49.246;9.106;2022-07-29T02:37:43;6.67;;;4.23;;
19585;SDS011;9939;49.246;9.106;2022-07-29T02:40:33;6.57;;;4.10;;
19585;SDS011;9939;49.246;9.106;2022-07-29T02:43:02;6.17;;;3.80;;
19585;SDS011;9939;49.246;9.106;2022-07-29T02:45:30;6.70;;;4.20;;
19585;SDS011;9939;49.246;9.106;2022-07-29T02:47:59;8.33;;;4.43;;
19585;SDS011;9939;49.246;9.106;2022-07-29T02:50:31;6.30;;;4.20;;
19585;SDS011;9939;49.246;9.106;2022-07-29T02:53:02;9.67;;;4.33;;
19585;SDS011;9939;49.246;9.106;2022-07-29T02:55:49;8.90;;;4.93;;
19585;SDS011;9939;49.246;9.106;2022-07-29T02:58:30;6.57;;;3.90;;
19585;SDS011;9939;49.246;9.106;2022-07-29T03:01:08;7.93;;;4.90;;
19585;SDS011;9939;49.246;9.106;2022-07-29T03:03:48;7.90;;;4.93;;
19585;SDS011;9939;49.246;9.106;2022-07-29T03:06:16;7.13;;;4.67;;
19585;SDS011;9939;49.246;9.106;2022-07-29T03:09:04;8.23;;;4.50;;
19585;SDS011;9939;49.246;9.106;2022-07-29T03:11:38;6.60;;;4.23;;
19585;SDS011;9939;49.246;9.106;2022-07-29T03:14:16;9.13;;;4.47;;
19585;SDS011;9939;49.246;9.106;2022-07-29T03:16:46;9.33;;;4.20;;
19585;SDS011;9939;49.246;9.106;2022-07-29T03:19:13;9.23;;;4.17;;
19585;SDS011;9939;49.246;9.106;2022-07-29T03:21:41;9.93;;;3.80;;
19585;SDS011;9939;49.246;9.106;2022-07-29T03:24:08;8.70;;;4.23;;
19585;SDS011;9939;49.246;9.106;2022-07-29T03:26:36;7.90;;;3.70;;
19585;SDS011;9939;49.246;9.106;2022-07-29T03:29:03;10.17;;;4.37;;
19585;SDS011;9939;49.246;9.106;2022-07-29T03:31:31;10.37;;;4.83;;
19585;SDS011;9939;49.246;9.106;2022-07-29T03:33:58;7.93;;;4.37;;
19585;SDS011;9939;49.246;9.106;2022-07-29T03:36:26;7.07;;;4.40;;
19585;SDS011;9939;49.246;9.106;2022-07-29T03:38:52;7.80;;;4.93;;
19585;SDS011;9939;49.246;9.106;2022-07-29T03:41:20;8.80;;;4.63;;
19585;SDS011;9939;49.246;9.106;2022-07-29T03:43:49;7.30;;;4.53;;
19585;SDS011;9939;49.246;9.106;2022-07-29T03:46:20;10.30;;;4.37;;
19585;SDS011;9939;49.246;9.106;2022-07-29T03:48:50;9.77;;;4.67;;
19585;SDS011;9939;49.246;9.106;2022-07-29T03:51:23;6.47;;;4.30;;
19585;SDS011;9939;49.246;9.106;2022-07-29T03:53:59;12.77;;;4.53;;
19585;SDS011;9939;49.246;9.106;2022-07-29T03:56:37;8.07;;;4.10;;
19585;SDS011;9939;49.246;9.106;2022-07-29T03:59:07;8.43;;;4.40;;
19585;SDS011;9939;49.246;9.106;2022-07-29T04:01:34;9.70;;;4.47;;
19585;SDS011;9939;49.246;9.106;2022-07-29T04:04:02;8.73;;;4.50;;
19585;SDS011;9939;49.246;9.106;2022-07-29T04:06:37;8.63;;;4.67;;
19585;SDS011;9939;49.246;9.106;2022-07-29T04:09:06;10.60;;;4.80;;
19585;SDS011;9939;49.246;9.106;2022-07-29T04:11:35;7.93;;;4.13;;
19585;SDS011;9939;49.246;9.106;2022-07-29T04:14:24;10.20;;;4.37;;
19585;SDS011;9939;49.246;9.106;2022-07-29T04:16:51;9.80;;;4.60;;
19585;SDS011;9939;49.246;9.106;2022-07-29T04:19:19;7.90;;;4.47;;
19585;SDS011;9939;49.246;9.106;2022-07-29T04:21:45;7.90;;;4.53;;
19585;SDS011;9939;49.246;9.106;2022-07-29T04:24:13;8.20;;;4.43;;
19585;SDS011;9939;49.246;9.106;2022-07-29T04:26:40;12.63;;;5.07;;
19585;SDS011;9939;49.246;9.106;2022-07-29T04:29:08;7.13;;;4.47;;
19585;SDS011;9939;49.246;9.106;2022-07-29T04:31:34;7.03;;;3.97;;
19585;SDS011;9939;49.246;9.106;2022-07-29T04:34:01;7.93;;;4.13;;
19585;SDS011;9939;49.246;9.106;2022-07-29T04:36:28;5.80;;;4.20;;
19585;SDS011;9939;49.246;9.106;2022-07-29T04:38:55;11.67;;;4.20;;
19585;SDS011;9939;49.246;9.106;2022-07-29T04:41:22;9.07;;;3.97;;
19585;SDS011;9939;49.246;9.106;2022-07-29T04:43:58;7.23;;;4.47;;
19585;SDS011;9939;49.246;9.106;2022-07-29T04:46:32;6.03;;;3.60;;
19585;SDS011;9939;49.246;9.106;2022-07-29T04:49:00;8.77;;;4.57;;
19585;SDS011;9939;49.246;9.106;2022-07-29T04:51:29;6.87;;;4.27;;
19585;SDS011;9939;49.246;9.106;2022-07-29T04:53:56;10.60;;;4.30;;
19585;SDS011;9939;49.246;9.106;2022-07-29T04:56:23;8.27;;;4.33;;
19585;SDS011;9939;49.246;9.106;2022-07-29T04:58:50;8.80;;;4.50;;
19585;SDS011;9939;49.246;9.106;2022-07-29T05:01:17;7.40;;;3.67;;
19585;SDS011;9939;49.246;9.106;2022-07-29T05:03:44;6.70;;;3.80;;
19585;SDS011;9939;49.246;9.106;2022-07-29T05:06:12;7.00;;;3.90;;
19585;SDS011;9939;49.246;9.106;2022-07-29T05:08:38;6.50;;;3.67;;
19585;SDS011;9939;49.246;9.106;2022-07-29T05:11:07;10.97;;;4.10;;
19585;SDS011;9939;49.246;9.106;2022-07-29T05:13:38;9.13;;;3.90;;
19585;SDS011;9939;49.246;9.106;2022-07-29T05:16:12;7.90;;;4.00;;
19585;SDS011;9939;49.246;9.106;2022-07-29T05:18:40;5.43;;;3.47;;
19585;SDS011;9939;49.246;9.106;2022-07-29T05:21:07;6.77;;;3.30;;
19585;SDS011;9939;49.246;9.106;2022-07-29T05:23:34;8.60;;;3.77;;
19585;SDS011;9939;49.246;9.106;2022-07-29T05:26:01;6.67;;;3.17;;
19585;SDS011;9939;49.246;9.106;2022-07-29T05:28:28;8.53;;;3.33;;
19585;SDS011;9939;49.246;9.106;2022-07-29T05:30:55;6.10;;;3.40;;
19585;SDS011;9939;49.246;9.106;2022-07-29T05:33:22;6.30;;;3.37;;
19585;SDS011;9939;49.246;9.106;2022-07-29T05:36:01;6.10;;;3.10;;
19585;SDS011;9939;49.246;9.106;2022-07-29T05:38:32;6.77;;;3.23;;
19585;SDS011;9939;49.246;9.106;2022-07-29T05:41:03;5.30;;;3.00;;
19585;SDS011;9939;49.246;9.106;2022-07-29T05:43:31;7.17;;;3.30;;
19585;SDS011;9939;49.246;9.106;2022-07-29T05:45:58;6.40;;;3.40;;
19585;SDS011;9939;49.246;9.106;2022-07-29T05:48:25;7.40;;;3.37;;
19585;SDS011;9939;49.246;9.106;2022-07-29T05:50:52;6.20;;;3.10;;
19585;SDS011;9939;49.246;9.106;2022-07-29T05:53:19;8.73;;;2.90;;
19585;SDS011;9939;49.246;9.106;2022-07-29T05:55:49;4.63;;;3.00;;
19585;SDS011;9939;49.246;9.106;2022-07-29T05:58:16;8.67;;;3.47;;
19585;SDS011;9939;49.246;9.106;2022-07-29T06:00:44;6.93;;;3.27;;
19585;SDS011;9939;49.246;9.106;2022-07-29T06:03:11;4.80;;;2.83;;
19585;SDS011;9939;49.246;9.106;2022-07-29T06:05:38;4.87;;;2.90;;
19585;SDS011;9939;49.246;9.106;2022-07-29T06:08:05;6.67;;;3.13;;
19585;SDS011;9939;49.246;9.106;2022-07-29T06:10:36;6.13;;;3.20;;
19585;SDS011;9939;49.246;9.106;2022-07-29T06:13:04;5.77;;;2.93;;
19585;SDS011;9939;49.246;9.106;2022-07-29T06:15:30;8.10;;;3.80;;
19585;SDS011;9939;49.246;9.106;2022-07-29T06:17:58;7.17;;;2.90;;
19585;SDS011;9939;49.246;9.106;2022-07-29T06:20:27;6.17;;;3.03;;
19585;SDS011;9939;49.246;9.106;2022-07-29T06:22:56;6.30;;;2.80;;
19585;SDS011;9939;49.246;9.106;2022-07-29T06:25:23;8.70;;;3.30;;
19585;SDS011;9939;49.246;9.106;2022-07-29T06:27:50;5.70;;;2.97;;
19585;SDS011;9939;49.246;9.106;2022-07-29T06:30:18;7.60;;;3.83;;
19585;SDS011;9939;49.246;9.106;2022-07-29T06:32:45;4.47;;;2.97;;
19585;SDS011;9939;49.246;9.106;2022-07-29T06:35:12;7.20;;;3.10;;
19585;SDS011;9939;49.246;9.106;2022-07-29T06:37:59;8.33;;;3.27;;
19585;SDS011;9939;49.246;9.106;2022-07-29T06:40:26;7.90;;;3.50;;
19585;SDS011;9939;49.246;9.106;2022-07-29T06:43:11;6.73;;;3.40;;
19585;SDS011;9939;49.246;9.106;2022-07-29T06:45:38;7.53;;;3.33;;
19585;SDS011;9939;49.246;9.106;2022-07-29T06:48:08;5.20;;;3.40;;
19585;SDS011;9939;49.246;9.106;2022-07-29T06:50:35;9.33;;;3.53;;
19585;SDS011;9939;49.246;9.106;2022-07-29T06:53:02;6.63;;;3.70;;
19585;SDS011;9939;49.246;9.106;2022-07-29T06:55:29;7.83;;;3.37;;
19585;SDS011;9939;49.246;9.106;2022-07-29T06:57:56;8.57;;;3.07;;
19585;SDS011;9939;49.246;9.106;2022-07-29T07:00:23;6.83;;;3.37;;
19585;SDS011;9939;49.246;9.106;2022-07-29T07:02:50;8.03;;;3.40;;
19585;SDS011;9939;49.246;9.106;2022-07-29T07:05:18;5.07;;;3.20;;
19585;SDS011;9939;49.246;9.106;2022-07-29T07:07:44;7.20;;;3.27;;
19585;SDS011;9939;49.246;9.106;2022-07-29T07:10:11;4.73;;;3.47;;
19585;SDS011;9939;49.246;9.106;2022-07-29T07:12:38;7.20;;;3.70;;
19585;SDS011;9939;49.246;9.106;2022-07-29T07:15:05;7.43;;;3.20;;
19585;SDS011;9939;49.246;9.106;2022-07-29T07:17:32;7.07;;;3.47;;
19585;SDS011;9939;49.246;9.106;2022-07-29T07:19:59;7.23;;;3.63;;
19585;SDS011;9939;49.246;9.106;2022-07-29T07:22:26;5.00;;;3.30;;
19585;SDS011;9939;49.246;9.106;2022-07-29T07:24:53;7.17;;;3.50;;
19585;SDS011;9939;49.246;9.106;2022-07-29T07:27:20;8.00;;;3.93;;
19585;SDS011;9939;49.246;9.106;2022-07-29T07:29:47;4.47;;;3.07;;
19585;SDS011;9939;49.246;9.106;2022-07-29T07:32:14;7.67;;;3.33;;
19585;SDS011;9939;49.246;9.106;2022-07-29T07:34:43;6.27;;;3.63;;
19585;SDS011;9939;49.246;9.106;2022-07-29T07:37:10;7.00;;;3.30;;
19585;SDS011;9939;49.246;9.106;2022-07-29T07:39:37;6.37;;;3.60;;
19585;SDS011;9939;49.246;9.106;2022-07-29T07:42:04;6.23;;;4.07;;
19585;SDS011;9939;49.246;9.106;2022-07-29T07:44:31;7.43;;;3.33;;
19585;SDS011;9939;49.246;9.106;2022-07-29T07:47:11;6.40;;;3.23;;
19585;SDS011;9939;49.246;9.106;2022-07-29T07:49:40;6.20;;;3.83;;
19585;SDS011;9939;49.246;9.106;2022-07-29T07:52:10;6.77;;;3.73;;
19585;SDS011;9939;49.246;9.106;2022-07-29T07:54:37;6.60;;;3.77;;
19585;SDS011;9939;49.246;9.106;2022-07-29T07:57:04;6.70;;;3.87;;
19585;SDS011;9939;49.246;9.106;2022-07-29T07:59:31;5.83;;;3.70;;
19585;SDS011;9939;49.246;9.106;2022-07-29T08:01:58;7.30;;;3.93;;
19585;SDS011;9939;49.246;9.106;2022-07-29T08:04:26;6.97;;;3.77;;
19585;SDS011;9939;49.246;9.106;2022-07-29T08:06:55;6.93;;;3.77;;
19585;SDS011;9939;49.246;9.106;2022-07-29T08:09:23;6.77;;;4.10;;
19585;SDS011;9939;49.246;9.106;2022-07-29T08:11:56;6.17;;;3.60;;
19585;SDS011;9939;49.246;9.106;2022-07-29T08:14:25;8.03;;;3.77;;
19585;SDS011;9939;49.246;9.106;2022-07-29T08:16:51;5.97;;;4.00;;
19585;SDS011;9939;49.246;9.106;2022-07-29T08:19:19;6.20;;;3.90;;
19585;SDS011;9939;49.246;9.106;2022-07-29T08:21:45;6.57;;;3.93;;
19585;SDS011;9939;49.246;9.106;2022-07-29T08:24:12;7.63;;;4.40;;
19585;SDS011;9939;49.246;9.106;2022-07-29T08:26:58;6.43;;;4.00;;
19585;SDS011;9939;49.246;9.106;2022-07-29T08:29:25;8.87;;;3.83;;
19585;SDS011;9939;49.246;9.106;2022-07-29T08:31:52;10.13;;;4.10;;
19585;SDS011;9939;49.246;9.106;2022-07-29T08:34:19;8.13;;;4.33;;
19585;SDS011;9939;49.246;9.106;2022-07-29T08:36:53;7.03;;;3.70;;
19585;SDS011;9939;49.246;9.106;2022-07-29T08:39:21;6.17;;;3.80;;
19585;SDS011;9939;49.246;9.106;2022-07-29T08:41:48;5.28;;;3.50;;
19585;SDS011;9939;49.246;9.106;2022-07-29T08:44:22;8.45;;;4.15;;
19585;SDS011;9939;49.246;9.106;2022-07-29T08:46:56;8.00;;;3.90;;
19585;SDS011;9939;49.246;9.106;2022-07-29T08:49:23;10.20;;;3.70;;
19585;SDS011;9939;49.246;9.106;2022-07-29T08:51:50;9.18;;;4.15;;
19585;SDS011;9939;49.246;9.106;2022-07-29T08:54:20;8.40;;;4.10;;
19585;SDS011;9939;49.246;9.106;2022-07-29T08:56:50;7.80;;;3.83;;
19585;SDS011;9939;49.246;9.106;2022-07-29T08:59:20;11.45;;;3.95;;
19585;SDS011;9939;49.246;9.106;2022-07-29T09:01:50;7.03;;;3.63;;
19585;SDS011;9939;49.246;9.106;2022-07-29T09:04:20;8.50;;;3.40;;
19585;SDS011;9939;49.246;9.106;2022-07-29T09:06:49;10.85;;;3.88;;
19585;SDS011;9939;49.246;9.106;2022-07-29T09:09:20;5.93;;;3.90;;
19585;SDS011;9939;49.246;9.106;2022-07-29T09:11:47;8.68;;;3.28;;
19585;SDS011;9939;49.246;9.106;2022-07-29T09:14:14;4.70;;;3.30;;
19585;SDS011;9939;49.246;9.106;2022-07-29T09:16:54;8.02;;;4.00;;
19585;SDS011;9939;49.246;9.106;2022-07-29T09:19:35;6.60;;;3.65;;
19585;SDS011;9939;49.246;9.106;2022-07-29T09:22:10;5.40;;;3.60;;
19585;SDS011;9939;49.246;9.106;2022-07-29T09:24:44;8.70;;;4.25;;
19585;SDS011;9939;49.246;9.106;2022-07-29T09:32:55;7.65;;;3.95;;
19585;SDS011;9939;49.246;9.106;2022-07-29T09:35:25;10.00;;;3.80;;
19585;SDS011;9939;49.246;9.106;2022-07-29T09:37:53;5.55;;;3.92;;
19585;SDS011;9939;49.246;9.106;2022-07-29T09:40:24;6.95;;;4.30;;
19585;SDS011;9939;49.246;9.106;2022-07-29T09:42:54;6.25;;;3.95;;
19585;SDS011;9939;49.246;9.106;2022-07-29T09:47:58;7.88;;;4.47;;
19585;SDS011;9939;49.246;9.106;2022-07-29T09:50:39;5.95;;;4.25;;
19585;SDS011;9939;49.246;9.106;2022-07-29T09:53:07;6.65;;;4.00;;
19585;SDS011;9939;49.246;9.106;2022-07-29T09:55:55;6.10;;;4.60;;
19585;SDS011;9939;49.246;9.106;2022-07-29T09:58:22;8.30;;;5.22;;
19585;SDS011;9939;49.246;9.106;2022-07-29T10:00:50;9.38;;;5.00;;
19585;SDS011;9939;49.246;9.106;2022-07-29T10:03:19;5.35;;;4.13;;
19585;SDS011;9939;49.246;9.106;2022-07-29T10:06:03;8.13;;;4.80;;
19585;SDS011;9939;49.246;9.106;2022-07-29T10:08:33;10.82;;;4.65;;
19585;SDS011;9939;49.246;9.106;2022-07-29T10:13:41;9.82;;;4.70;;
19585;SDS011;9939;49.246;9.106;2022-07-29T10:16:10;7.53;;;4.70;;
19585;SDS011;9939;49.246;9.106;2022-07-29T10:18:40;8.82;;;4.63;;
19585;SDS011;9939;49.246;9.106;2022-07-29T10:21:08;6.88;;;4.45;;
19585;SDS011;9939;49.246;9.106;2022-07-29T10:23:47;6.50;;;4.72;;
19585;SDS011;9939;49.246;9.106;2022-07-29T10:26:15;8.82;;;5.03;;
19585;SDS011;9939;49.246;9.106;2022-07-29T10:28:44;7.63;;;4.22;;
19585;SDS011;9939;49.246;9.106;2022-07-29T10:31:13;7.22;;;4.63;;
19585;SDS011;9939;49.246;9.106;2022-07-29T10:36:38;6.75;;;4.70;;
19585;SDS011;9939;49.246;9.106;2022-07-29T10:42:22;9.65;;;4.90;;
19585;SDS011;9939;49.246;9.106;2022-07-29T10:45:11;9.90;;;5.13;;
19585;SDS011;9939;49.246;9.106;2022-07-29T10:47:40;6.45;;;4.70;;
19585;SDS011;9939;49.246;9.106;2022-07-29T10:50:08;8.90;;;4.72;;
19585;SDS011;9939;49.246;9.106;2022-07-29T10:52:52;6.82;;;4.95;;
19585;SDS011;9939;49.246;9.106;2022-07-29T10:55:35;6.35;;;4.32;;
19585;SDS011;9939;49.246;9.106;2022-07-29T10:58:26;7.18;;;4.38;;
19585;SDS011;9939;49.246;9.106;2022-07-29T11:00:53;7.28;;;4.72;;
19585;SDS011;9939;49.246;9.106;2022-07-29T11:06:15;7.72;;;4.88;;
19585;SDS011;9939;49.246;9.106;2022-07-29T11:11:42;6.43;;;4.50;;
19585;SDS011;9939;49.246;9.106;2022-07-29T11:14:17;6.75;;;4.85;;
19585;SDS011;9939;49.246;9.106;2022-07-29T11:17:07;11.55;;;6.05;;
19585;SDS011;9939;49.246;9.106;2022-07-29T11:19:34;7.28;;;5.03;;
19585;SDS011;9939;49.246;9.106;2022-07-29T11:22:07;7.32;;;4.57;;
19585;SDS011;9939;49.246;9.106;2022-07-29T11:24:36;6.70;;;4.95;;
19585;SDS011;9939;49.246;9.106;2022-07-29T11:27:16;7.85;;;4.75;;
19585;SDS011;9939;49.246;9.106;2022-07-29T11:29:47;6.93;;;5.00;;
19585;SDS011;9939;49.246;9.106;2022-07-29T11:32:16;6.72;;;4.72;;
19585;SDS011;9939;49.246;9.106;2022-07-29T11:35:22;7.15;;;4.47;;
19585;SDS011;9939;49.246;9.106;2022-07-29T11:38:23;9.00;;;4.57;;
19585;SDS011;9939;49.246;9.106;2022-07-29T11:43:54;7.32;;;4.72;;
19585;SDS011;9939;49.246;9.106;2022-07-29T11:49:19;7.18;;;4.50;;
19585;SDS011;9939;49.246;9.106;2022-07-29T11:51:58;6.13;;;4.55;;
19585;SDS011;9939;49.246;9.106;2022-07-29T11:54:32;7.75;;;4.05;;
19585;SDS011;9939;49.246;9.106;2022-07-29T11:57:21;6.55;;;4.72;;
19585;SDS011;9939;49.246;9.106;2022-07-29T12:00:06;6.38;;;4.90;;
19585;SDS011;9939;49.246;9.106;2022-07-29T12:02:41;7.88;;;4.45;;
19585;SDS011;9939;49.246;9.106;2022-07-29T12:05:13;9.23;;;4.50;;
19585;SDS011;9939;49.246;9.106;2022-07-29T12:08:04;7.50;;;4.32;;
19585;SDS011;9939;49.246;9.106;2022-07-29T12:10:41;5.40;;;3.85;;
19585;SDS011;9939;49.246;9.106;2022-07-29T12:13:10;5.03;;;3.85;;
19585;SDS011;9939;49.246;9.106;2022-07-29T12:15:38;6.03;;;4.05;;
19585;SDS011;9939;49.246;9.106;2022-07-29T12:18:13;6.80;;;4.55;;
19585;SDS011;9939;49.246;9.106;2022-07-29T12:20:44;4.55;;;3.80;;
19585;SDS011;9939;49.246;9.106;2022-07-29T12:23:11;5.55;;;4.03;;
19585;SDS011;9939;49.246;9.106;2022-07-29T12:25:38;6.68;;;4.38;;
19585;SDS011;9939;49.246;9.106;2022-07-29T12:28:08;5.82;;;3.92;;
19585;SDS011;9939;49.246;9.106;2022-07-29T12:30:46;5.50;;;4.20;;
19585;SDS011;9939;49.246;9.106;2022-07-29T12:33:21;6.63;;;3.90;;
19585;SDS011;9939;49.246;9.106;2022-07-29T12:35:54;5.65;;;4.20;;
19585;SDS011;9939;49.246;9.106;2022-07-29T12:38:40;4.40;;;4.00;;
19585;SDS011;9939;49.246;9.106;2022-07-29T12:41:07;6.07;;;4.43;;
19585;SDS011;9939;49.246;9.106;2022-07-29T12:43:35;5.30;;;4.00;;
19585;SDS011;9939;49.246;9.106;2022-07-29T12:46:11;10.57;;;4.95;;
19585;SDS011;9939;49.246;9.106;2022-07-29T12:48:40;5.32;;;3.88;;
19585;SDS011;9939;49.246;9.106;2022-07-29T12:51:09;6.13;;;3.63;;
19585;SDS011;9939;49.246;9.106;2022-07-29T12:53:38;7.03;;;4.13;;
19585;SDS011;9939;49.246;9.106;2022-07-29T12:56:06;5.55;;;3.92;;
19585;SDS011;9939;49.246;9.106;2022-07-29T12:59:21;8.57;;;4.43;;
19585;SDS011;9939;49.246;9.106;2022-07-29T13:01:49;6.70;;;3.50;;
19585;SDS011;9939;49.246;9.106;2022-07-29T13:04:28;8.20;;;3.60;;
19585;SDS011;9939;49.246;9.106;2022-07-29T13:06:58;6.10;;;3.53;;
19585;SDS011;9939;49.246;9.106;2022-07-29T13:09:36;5.32;;;3.90;;
19585;SDS011;9939;49.246;9.106;2022-07-29T13:12:07;5.32;;;3.40;;
19585;SDS011;9939;49.246;9.106;2022-07-29T13:14:37;6.18;;;3.85;;
19585;SDS011;9939;49.246;9.106;2022-07-29T13:22:10;8.80;;;3.97;;
19585;SDS011;9939;49.246;9.106;2022-07-29T13:25:12;6.10;;;3.78;;
19585;SDS011;9939;49.246;9.106;2022-07-29T13:27:36;6.53;;;3.38;;
19585;SDS011;9939;49.246;9.106;2022-07-29T13:30:05;5.20;;;3.60;;
19585;SDS011;9939;49.246;9.106;2022-07-29T13:32:34;6.50;;;3.35;;
19585;SDS011;9939;49.246;9.106;2022-07-29T13:35:03;5.60;;;3.45;;
19585;SDS011;9939;49.246;9.106;2022-07-29T13:37:33;5.13;;;3.20;;
19585;SDS011;9939;49.246;9.106;2022-07-29T13:40:02;6.07;;;3.30;;
19585;SDS011;9939;49.246;9.106;2022-07-29T13:42:29;6.63;;;3.53;;
19585;SDS011;9939;49.246;9.106;2022-07-29T13:44:58;7.05;;;3.72;;
19585;SDS011;9939;49.246;9.106;2022-07-29T13:47:25;8.68;;;3.78;;
19585;SDS011;9939;49.246;9.106;2022-07-29T13:49:58;8.32;;;3.60;;
19585;SDS011;9939;49.246;9.106;2022-07-29T13:52:27;4.55;;;3.30;;
19585;SDS011;9939;49.246;9.106;2022-07-29T13:54:54;7.15;;;3.80;;
19585;SDS011;9939;49.246;9.106;2022-07-29T13:57:21;7.93;;;3.80;;
19585;SDS011;9939;49.246;9.106;2022-07-29T13:59:48;5.85;;;3.63;;
19585;SDS011;9939;49.246;9.106;2022-07-29T14:02:19;8.38;;;3.38;;
19585;SDS011;9939;49.246;9.106;2022-07-29T14:04:51;5.60;;;3.30;;
19585;SDS011;9939;49.246;9.106;2022-07-29T14:07:19;5.30;;;3.35;;
19585;SDS011;9939;49.246;9.106;2022-07-29T14:09:46;5.63;;;3.22;;
19585;SDS011;9939;49.246;9.106;2022-07-29T14:12:12;4.95;;;3.38;;
19585;SDS011;9939;49.246;9.106;2022-07-29T14:14:40;5.63;;;2.75;;
19585;SDS011;9939;49.246;9.106;2022-07-29T14:17:08;4.75;;;3.35;;
19585;SDS011;9939;49.246;9.106;2022-07-29T14:19:35;4.78;;;3.30;;
19585;SDS011;9939;49.246;9.106;2022-07-29T14:22:04;4.97;;;3.50;;
19585;SDS011;9939;49.246;9.106;2022-07-29T14:24:32;5.05;;;3.47;;
19585;SDS011;9939;49.246;9.106;2022-07-29T14:27:03;5.65;;;3.28;;
19585;SDS011;9939;49.246;9.106;2022-07-29T14:29:30;5.95;;;3.35;;
19585;SDS011;9939;49.246;9.106;2022-07-29T14:32:07;9.82;;;3.22;;
19585;SDS011;9939;49.246;9.106;2022-07-29T14:34:37;8.40;;;3.58;;
19585;SDS011;9939;49.246;9.106;2022-07-29T14:37:04;5.45;;;3.15;;
19585;SDS011;9939;49.246;9.106;2022-07-29T14:39:32;6.32;;;3.40;;
19585;SDS011;9939;49.246;9.106;2022-07-29T14:42:08;5.60;;;3.30;;
19585;SDS011;9939;49.246;9.106;2022-07-29T14:44:38;5.53;;;3.25;;
19585;SDS011;9939;49.246;9.106;2022-07-29T14:47:06;5.07;;;3.33;;
19585;SDS011;9939;49.246;9.106;2022-07-29T14:49:34;6.93;;;3.05;;
19585;SDS011;9939;49.246;9.106;2022-07-29T14:52:01;5.18;;;3.33;;
19585;SDS011;9939;49.246;9.106;2022-07-29T14:54:28;4.10;;;2.72;;
19585;SDS011;9939;49.246;9.106;2022-07-29T14:56:55;4.07;;;2.97;;
19585;SDS011;9939;49.246;9.106;2022-07-29T14:59:24;8.85;;;3.63;;
19585;SDS011;9939;49.246;9.106;2022-07-29T15:01:51;4.85;;;2.85;;
19585;SDS011;9939;49.246;9.106;2022-07-29T15:04:19;6.05;;;2.72;;
19585;SDS011;9939;49.246;9.106;2022-07-29T15:06:46;5.32;;;2.70;;
19585;SDS011;9939;49.246;9.106;2022-07-29T15:09:13;3.90;;;2.53;;
19585;SDS011;9939;49.246;9.106;2022-07-29T15:11:40;4.75;;;2.80;;
19585;SDS011;9939;49.246;9.106;2022-07-29T15:14:07;3.83;;;2.30;;
19585;SDS011;9939;49.246;9.106;2022-07-29T15:16:37;4.90;;;2.47;;
19585;SDS011;9939;49.246;9.106;2022-07-29T15:19:09;5.78;;;2.45;;
19585;SDS011;9939;49.246;9.106;2022-07-29T15:21:36;5.03;;;2.47;;
19585;SDS011;9939;49.246;9.106;2022-07-29T15:24:13;6.68;;;2.67;;
19585;SDS011;9939;49.246;9.106;2022-07-29T15:26:40;4.68;;;2.28;;
19585;SDS011;9939;49.246;9.106;2022-07-29T15:29:08;6.40;;;2.65;;
19585;SDS011;9939;49.246;9.106;2022-07-29T15:31:35;3.65;;;2.50;;
19585;SDS011;9939;49.246;9.106;2022-07-29T15:34:02;4.55;;;2.70;;
19585;SDS011;9939;49.246;9.106;2022-07-29T15:36:31;8.52;;;2.78;;
19585;SDS011;9939;49.246;9.106;2022-07-29T15:39:19;4.55;;;2.53;;
19585;SDS011;9939;49.246;9.106;2022-07-29T15:41:47;4.43;;;2.25;;
19585;SDS011;9939;49.246;9.106;2022-07-29T15:44:13;4.07;;;2.50;;
19585;SDS011;9939;49.246;9.106;2022-07-29T15:46:40;7.72;;;2.88;;
19585;SDS011;9939;49.246;9.106;2022-07-29T15:49:27;5.72;;;2.72;;
19585;SDS011;9939;49.246;9.106;2022-07-29T15:52:17;4.95;;;2.30;;
19585;SDS011;9939;49.246;9.106;2022-07-29T15:54:51;4.53;;;2.40;;
19585;SDS011;9939;49.246;9.106;2022-07-29T15:57:20;6.57;;;2.40;;
19585;SDS011;9939;49.246;9.106;2022-07-29T15:59:48;7.43;;;2.40;;
19585;SDS011;9939;49.246;9.106;2022-07-29T16:02:15;7.00;;;2.40;;
19585;SDS011;9939;49.246;9.106;2022-07-29T16:04:42;4.90;;;2.55;;
19585;SDS011;9939;49.246;9.106;2022-07-29T16:07:09;6.22;;;2.33;;
19585;SDS011;9939;49.246;9.106;2022-07-29T16:09:36;4.50;;;2.08;;
19585;SDS011;9939;49.246;9.106;2022-07-29T16:12:03;4.07;;;1.90;;
19585;SDS011;9939;49.246;9.106;2022-07-29T16:14:41;4.70;;;2.20;;